createdAt,value
2022-11-20T00:00:18.285Z,3.68
2022-11-20T00:02:44.671Z,3.68
2022-11-20T00:05:11.076Z,3.67
2022-11-20T00:07:38.669Z,3.65
2022-11-20T00:10:05.468Z,3.64
2022-11-20T00:12:32.460Z,3.64
2022-11-20T00:14:58.820Z,3.63
2022-11-20T00:17:26.786Z,3.62
2022-11-20T00:19:53.222Z,3.61
2022-11-20T00:22:20.066Z,3.63
2022-11-20T00:24:49.458Z,3.63
2022-11-20T00:27:16.039Z,3.62
2022-11-20T00:29:42.354Z,3.60
2022-11-20T00:32:08.855Z,3.60
2022-11-20T00:34:35.358Z,3.59
2022-11-20T00:37:02.131Z,3.59
2022-11-20T00:39:28.433Z,3.58
2022-11-20T00:41:54.771Z,3.57
2022-11-20T00:44:22.664Z,3.58
2022-11-20T00:46:49.248Z,3.58
2022-11-20T00:49:15.584Z,3.57
2022-11-20T00:51:41.904Z,3.56
2022-11-20T00:54:08.388Z,3.54
2022-11-20T00:56:34.697Z,3.53
2022-11-20T00:59:02.320Z,3.50
2022-11-20T01:01:30.248Z,3.49
2022-11-20T01:04:00.196Z,3.48
2022-11-20T01:06:35.437Z,3.46
2022-11-20T01:09:05.194Z,3.49
2022-11-20T01:11:35.027Z,3.53
2022-11-20T01:14:04.225Z,3.56
2022-11-20T01:16:37.083Z,3.61
2022-11-20T01:19:05.943Z,3.68
2022-11-20T01:21:34.672Z,3.76
2022-11-20T01:24:02.352Z,3.83
2022-11-20T01:26:31.214Z,3.91
2022-11-20T01:28:58.378Z,3.96
2022-11-20T01:31:26.241Z,4.01
2022-11-20T01:33:54.698Z,4.09
2022-11-20T01:36:22.284Z,4.16
2022-11-20T01:38:48.974Z,4.25
2022-11-20T01:41:36.153Z,4.28
2022-11-20T01:44:03.871Z,4.35
2022-11-20T01:46:37.013Z,4.41
2022-11-20T01:49:08.821Z,4.46
2022-11-20T01:52:13.717Z,4.51
2022-11-20T01:54:55.621Z,4.55
2022-11-20T01:57:24.601Z,4.60
2022-11-20T01:59:56.537Z,4.66
2022-11-20T02:02:24.539Z,4.72
2022-11-20T02:04:55.201Z,4.74
2022-11-20T02:07:23.443Z,4.79
2022-11-20T02:09:50.178Z,4.83
2022-11-20T02:12:34.904Z,4.86
2022-11-20T02:15:01.584Z,4.91
2022-11-20T02:17:28.769Z,4.93
2022-11-20T02:19:55.282Z,4.97
2022-11-20T02:22:39.172Z,4.99
2022-11-20T02:25:07.954Z,5.03
2022-11-20T02:27:35.154Z,5.06
2022-11-20T02:30:04.195Z,5.07
2022-11-20T02:32:33.590Z,5.09
2022-11-20T02:35:09.513Z,5.10
2022-11-20T02:37:39.699Z,5.13
2022-11-20T02:40:06.849Z,5.15
2022-11-20T02:42:33.189Z,5.16
2022-11-20T02:44:59.493Z,5.17
2022-11-20T02:47:25.875Z,5.20
2022-11-20T02:49:52.195Z,5.22
2022-11-20T02:52:18.526Z,5.24
2022-11-20T02:54:44.891Z,5.28
2022-11-20T02:57:11.413Z,5.31
2022-11-20T02:59:37.761Z,5.33
2022-11-20T03:02:04.298Z,5.36
2022-11-20T03:04:30.656Z,5.39
2022-11-20T03:06:57.234Z,5.43
2022-11-20T03:09:23.882Z,5.45
2022-11-20T03:11:50.384Z,5.47
2022-11-20T03:14:16.949Z,5.49
2022-11-20T03:16:43.337Z,5.50
2022-11-20T03:19:09.762Z,5.51
2022-11-20T03:21:36.461Z,5.52
2022-11-20T03:24:03.817Z,5.51
2022-11-20T03:26:30.577Z,5.52
2022-11-20T03:28:59.389Z,5.52
2022-11-20T03:31:28.769Z,5.53
2022-11-20T03:33:56.918Z,5.54
2022-11-20T03:36:23.398Z,5.54
2022-11-20T03:38:50.567Z,5.55
2022-11-20T03:41:20.133Z,5.57
2022-11-20T03:43:54.595Z,5.58
2022-11-20T03:46:21.765Z,5.61
2022-11-20T03:48:51.681Z,5.65
2022-11-20T03:51:22.457Z,5.66
2022-11-20T03:53:50.433Z,5.68
2022-11-20T03:56:18.822Z,5.69
2022-11-20T03:58:45.558Z,5.72
2022-11-20T04:01:17.540Z,5.74
2022-11-20T04:03:44.832Z,5.73
2022-11-20T04:06:13.872Z,5.72
2022-11-20T04:08:40.372Z,5.73
2022-11-20T04:11:12.531Z,5.72
2022-11-20T04:13:38.981Z,5.73
2022-11-20T04:16:07.701Z,5.76
2022-11-20T04:18:34.458Z,5.79
2022-11-20T04:21:01.902Z,5.81
2022-11-20T04:23:29.043Z,5.83
2022-11-20T04:25:55.738Z,5.86
2022-11-20T04:28:22.103Z,5.89
2022-11-20T04:30:48.408Z,5.90
2022-11-20T04:33:14.905Z,5.92
2022-11-20T04:35:41.420Z,5.93
2022-11-20T04:38:08.120Z,5.96
2022-11-20T04:40:34.496Z,5.99
2022-11-20T04:43:01.106Z,5.97
2022-11-20T04:45:27.438Z,5.99
2022-11-20T04:47:53.896Z,5.99
2022-11-20T04:50:20.262Z,5.99
2022-11-20T04:52:46.806Z,5.99
2022-11-20T04:55:13.292Z,5.99
2022-11-20T04:57:39.694Z,5.98
2022-11-20T05:00:06.716Z,5.98
2022-11-20T05:02:33.400Z,5.96
2022-11-20T05:04:59.763Z,5.94
2022-11-20T05:07:26.354Z,5.92
2022-11-20T05:09:54.159Z,5.88
2022-11-20T05:12:20.532Z,5.88
2022-11-20T05:14:46.876Z,5.86
2022-11-20T05:17:13.467Z,5.83
2022-11-20T05:19:39.832Z,5.83
2022-11-20T05:22:06.471Z,5.82
2022-11-20T05:24:34.784Z,5.83
2022-11-20T05:27:01.145Z,5.86
2022-11-20T05:29:27.695Z,5.89
2022-11-20T05:31:54.095Z,5.90
2022-11-20T05:34:20.440Z,5.94
2022-11-20T05:36:46.944Z,5.96
2022-11-20T05:39:13.784Z,5.98
2022-11-20T05:41:40.168Z,5.97
2022-11-20T05:44:06.699Z,5.97
2022-11-20T05:46:33.417Z,5.95
2022-11-20T05:48:59.988Z,5.93
2022-11-20T05:51:27.514Z,5.93
2022-11-20T05:53:54.066Z,5.89
2022-11-20T05:56:22.446Z,5.87
2022-11-20T05:58:50.183Z,5.85
2022-11-20T06:01:23.119Z,5.83
2022-11-20T06:03:51.468Z,5.80
2022-11-20T06:06:19.474Z,5.79
2022-11-20T06:08:46.380Z,5.77
2022-11-20T06:11:15.084Z,5.76
2022-11-20T06:13:42.968Z,5.75
2022-11-20T06:16:10.893Z,5.77
2022-11-20T06:18:38.119Z,5.78
2022-11-20T06:21:12.414Z,5.76
2022-11-20T06:23:39.510Z,5.77
2022-11-20T06:26:08.269Z,5.78
2022-11-20T06:28:35.276Z,5.79
2022-11-20T06:31:02.179Z,5.79
2022-11-20T06:33:28.953Z,5.79
2022-11-20T06:36:03.439Z,5.79
2022-11-20T06:38:32.736Z,5.80
2022-11-20T06:40:59.168Z,5.80
2022-11-20T06:43:26.874Z,5.78
2022-11-20T06:45:54.541Z,5.79
2022-11-20T06:48:21.513Z,5.78
2022-11-20T06:50:48.254Z,5.79
2022-11-20T06:53:15.123Z,5.78
2022-11-20T06:55:50.900Z,5.77
2022-11-20T06:58:18.415Z,5.78
2022-11-20T07:00:46.880Z,5.77
2022-11-20T07:03:13.562Z,5.78
2022-11-20T07:05:40.260Z,5.78
2022-11-20T07:08:07.709Z,5.79
2022-11-20T07:10:34.665Z,5.82
2022-11-20T07:13:01.023Z,5.83
2022-11-20T07:15:27.519Z,5.84
2022-11-20T07:17:54.150Z,5.87
2022-11-20T07:20:20.568Z,5.89
2022-11-20T07:22:53.718Z,5.90
2022-11-20T07:25:20.084Z,5.92
2022-11-20T07:27:46.419Z,5.91
2022-11-20T07:30:16.295Z,5.91
2022-11-20T07:32:42.664Z,5.88
2022-11-20T07:35:10.209Z,5.86
2022-11-20T07:37:36.678Z,5.85
2022-11-20T07:40:03.781Z,5.82
2022-11-20T07:42:30.172Z,5.81
2022-11-20T07:44:56.684Z,5.78
2022-11-20T07:47:23.222Z,5.77
2022-11-20T07:49:49.712Z,5.75
2022-11-20T07:52:16.003Z,5.74
2022-11-20T07:54:42.411Z,5.74
2022-11-20T07:57:09.032Z,5.72
2022-11-20T07:59:35.710Z,5.73
2022-11-20T08:02:04.277Z,5.73
2022-11-20T08:04:30.730Z,5.74
2022-11-20T08:06:57.430Z,5.74
2022-11-20T08:09:23.978Z,5.76
2022-11-20T08:12:08.939Z,5.78
2022-11-20T08:14:35.307Z,5.81
2022-11-20T08:17:01.651Z,5.85
2022-11-20T08:19:29.036Z,5.87
2022-11-20T08:21:56.294Z,5.90
2022-11-20T08:24:22.678Z,5.92
2022-11-20T08:26:52.158Z,5.95
2022-11-20T08:29:19.010Z,6.02
2022-11-20T08:31:46.435Z,6.05
2022-11-20T08:34:18.586Z,6.09
2022-11-20T08:36:45.604Z,6.13
2022-11-20T08:39:13.556Z,6.20
2022-11-20T08:41:40.074Z,6.24
2022-11-20T08:44:08.546Z,6.31
2022-11-20T08:46:40.284Z,6.37
2022-11-20T08:49:08.145Z,6.44
2022-11-20T08:51:34.449Z,6.52
2022-11-20T08:54:01.012Z,6.58
2022-11-20T08:56:27.762Z,6.65
2022-11-20T08:59:20.262Z,6.72
2022-11-20T09:01:42.049Z,6.80
2022-11-20T09:04:08.647Z,6.86
2022-11-20T09:06:35.056Z,6.92
2022-11-20T09:09:06.917Z,6.99
2022-11-20T09:11:45.177Z,7.06
2022-11-20T09:14:11.547Z,7.12
2022-11-20T09:16:37.871Z,7.20
2022-11-20T09:21:50.597Z,7.34
2022-11-20T09:24:17.221Z,7.42
2022-11-20T09:26:43.577Z,7.48
2022-11-20T09:29:10.068Z,7.56
2022-11-20T09:31:36.606Z,7.64
2022-11-20T09:34:03.569Z,7.70
2022-11-20T09:36:29.909Z,7.77
2022-11-20T09:38:57.473Z,7.83
2022-11-20T09:41:44.058Z,7.86
2022-11-20T09:44:38.794Z,7.95
2022-11-20T09:47:56.483Z,8.03
2022-11-20T09:50:44.300Z,8.11
2022-11-20T09:53:47.482Z,8.17
2022-11-20T09:56:22.869Z,8.25
2022-11-20T09:58:52.746Z,8.32
2022-11-20T10:01:27.051Z,8.37
2022-11-20T10:04:04.365Z,8.41
2022-11-20T10:09:55.811Z,8.54
2022-11-20T10:12:47.214Z,8.59
2022-11-20T10:15:29.841Z,8.66
2022-11-20T10:18:13.679Z,8.69
2022-11-20T10:20:49.754Z,8.75
2022-11-20T10:23:45.833Z,8.83
2022-11-20T10:26:40.009Z,8.89
2022-11-20T10:29:23.807Z,8.95
2022-11-20T10:31:57.534Z,9.01
2022-11-20T10:34:53.739Z,9.05
2022-11-20T10:37:26.722Z,9.12
2022-11-20T10:40:22.611Z,9.14
2022-11-20T10:43:00.126Z,9.22
2022-11-20T10:45:26.563Z,9.26
2022-11-20T10:47:57.425Z,9.31
2022-11-20T10:50:24.175Z,9.37
2022-11-20T10:53:27.690Z,9.39
2022-11-20T10:56:20.506Z,9.47
2022-11-20T10:59:09.969Z,9.53
2022-11-20T11:01:43.901Z,9.60
2022-11-20T11:04:33.314Z,9.64
2022-11-20T11:07:14.171Z,9.70
2022-11-20T11:09:44.957Z,9.72
2022-11-20T11:12:12.396Z,9.74
2022-11-20T11:14:53.771Z,9.73
2022-11-20T11:17:34.666Z,9.73
2022-11-20T11:20:08.250Z,9.77
2022-11-20T11:22:43.485Z,9.81
2022-11-20T11:25:20.933Z,9.81
2022-11-20T11:27:49.186Z,9.85
2022-11-20T11:30:18.142Z,9.85
2022-11-20T11:32:46.061Z,9.85
2022-11-20T11:35:51.527Z,9.81
2022-11-20T11:38:24.791Z,9.82
2022-11-20T11:40:55.050Z,9.81
2022-11-20T11:43:44.098Z,9.79
2022-11-20T11:46:31.386Z,9.73
2022-11-20T11:49:00.047Z,9.72
2022-11-20T11:51:37.096Z,9.68
2022-11-20T11:54:09.479Z,9.67
2022-11-20T11:56:37.742Z,9.68
2022-11-20T11:59:10.719Z,9.67
2022-11-20T12:01:50.174Z,9.69
2022-11-20T12:04:49.536Z,9.73
2022-11-20T12:07:46.459Z,9.81
2022-11-20T12:10:22.109Z,9.89
2022-11-20T12:13:03.268Z,9.96
2022-11-20T12:15:32.188Z,10.04
2022-11-20T12:17:58.756Z,10.11
2022-11-20T12:20:33.488Z,10.15
2022-11-20T12:23:11.794Z,10.18
2022-11-20T12:25:43.789Z,10.25
2022-11-20T12:28:25.447Z,10.33
2022-11-20T12:31:19.767Z,10.32
2022-11-20T12:34:07.543Z,10.32
2022-11-20T12:36:58.564Z,10.32
2022-11-20T12:39:36.177Z,10.31
2022-11-20T12:42:52.124Z,10.32
2022-11-20T12:45:53.988Z,10.32
2022-11-20T12:48:26.360Z,10.35
2022-11-20T12:51:15.169Z,10.36
2022-11-20T12:54:00.543Z,10.39
2022-11-20T12:56:48.584Z,10.43
2022-11-20T12:59:44.010Z,10.45
2022-11-20T13:02:45.454Z,10.48
2022-11-20T13:05:29.275Z,10.51
2022-11-20T13:07:57.633Z,10.54
2022-11-20T13:10:35.409Z,10.54
2022-11-20T13:13:13.310Z,10.54
2022-11-20T13:15:55.896Z,10.52
2022-11-20T13:18:22.597Z,10.53
2022-11-20T13:20:50.762Z,10.52
2022-11-20T13:23:29.798Z,10.49
2022-11-20T13:26:14.829Z,10.48
2022-11-20T13:28:41.751Z,10.50
2022-11-20T13:31:30.801Z,10.48
2022-11-20T13:33:58.871Z,10.51
2022-11-20T13:36:28.795Z,10.50
2022-11-20T13:38:56.903Z,10.49
2022-11-20T13:41:38.963Z,10.47
2022-11-20T13:44:35.694Z,10.45
2022-11-20T13:47:02.330Z,10.47
2022-11-20T13:49:45.159Z,10.43
2022-11-20T13:52:36.135Z,10.43
2022-11-20T13:55:02.424Z,10.44
2022-11-20T13:57:42.028Z,10.44
2022-11-20T14:00:20.703Z,10.37
2022-11-20T14:03:00.836Z,10.34
2022-11-20T14:05:27.755Z,10.31
2022-11-20T14:07:55.328Z,10.25
2022-11-20T14:10:31.129Z,10.21
2022-11-20T14:12:58.717Z,10.17
2022-11-20T14:15:31.065Z,10.11
2022-11-20T14:17:58.397Z,10.09
2022-11-20T14:20:28.546Z,10.05
2022-11-20T14:22:58.423Z,10.02
2022-11-20T14:25:31.887Z,9.99
2022-11-20T14:28:00.917Z,9.98
2022-11-20T14:30:40.492Z,9.94
2022-11-20T14:33:06.984Z,9.97
2022-11-20T14:35:41.405Z,9.93
2022-11-20T14:38:13.609Z,9.92
2022-11-20T14:40:40.903Z,9.90
2022-11-20T14:43:25.768Z,9.86
2022-11-20T14:46:05.778Z,9.85
2022-11-20T14:49:01.432Z,9.81
2022-11-20T14:51:42.868Z,9.81
2022-11-20T14:54:25.050Z,9.76
2022-11-20T14:57:03.276Z,9.74
2022-11-20T14:59:35.490Z,9.71
2022-11-20T15:02:07.356Z,9.68
2022-11-20T15:04:33.900Z,9.68
2022-11-20T15:07:02.019Z,9.65
2022-11-20T15:09:28.446Z,9.66
2022-11-20T15:12:04.824Z,9.64
2022-11-20T15:14:38.295Z,9.65
2022-11-20T15:17:04.685Z,9.62
2022-11-20T15:19:31.178Z,9.62
2022-11-20T15:21:57.611Z,9.61
2022-11-20T15:24:24.326Z,9.60
2022-11-20T15:26:50.862Z,9.59
2022-11-20T15:29:22.770Z,9.57
2022-11-20T15:31:49.249Z,9.56
2022-11-20T15:34:16.513Z,9.53
2022-11-20T15:36:43.634Z,9.52
2022-11-20T15:39:10.493Z,9.50
2022-11-20T15:41:37.361Z,9.50
2022-11-20T15:44:05.316Z,9.50
2022-11-20T15:46:38.445Z,9.49
2022-11-20T15:49:06.404Z,9.50
2022-11-20T15:51:36.209Z,9.49
2022-11-20T15:54:11.731Z,9.48
2022-11-20T15:56:38.653Z,9.50
2022-11-20T15:59:05.497Z,9.50
2022-11-20T16:01:32.338Z,9.48
2022-11-20T16:03:58.709Z,9.47
2022-11-20T16:06:25.111Z,9.47
2022-11-20T16:08:51.643Z,9.46
2022-11-20T16:11:19.182Z,9.46
2022-11-20T16:14:04.503Z,9.45
2022-11-20T16:16:34.320Z,9.46
2022-11-20T16:19:01.135Z,9.47
2022-11-20T16:21:32.347Z,9.47
2022-11-20T16:24:01.545Z,9.47
2022-11-20T16:26:28.938Z,9.44
2022-11-20T16:28:56.062Z,9.44
2022-11-20T16:31:23.027Z,9.43
2022-11-20T16:33:54.431Z,9.38
2022-11-20T16:36:22.854Z,9.36
2022-11-20T16:38:54.099Z,9.33
2022-11-20T16:41:20.476Z,9.32
2022-11-20T16:43:52.281Z,9.29
2022-11-20T16:46:23.668Z,9.25
2022-11-20T16:48:54.771Z,9.23
2022-11-20T16:51:23.471Z,9.22
2022-11-20T16:53:53.758Z,9.22
2022-11-20T16:56:22.804Z,9.21
2022-11-20T16:58:51.039Z,9.22
2022-11-20T17:01:21.670Z,9.23
2022-11-20T17:04:01.319Z,9.24
2022-11-20T17:06:30.586Z,9.27
2022-11-20T17:08:57.897Z,9.30
2022-11-20T17:11:25.064Z,9.32
2022-11-20T17:13:52.435Z,9.33
2022-11-20T17:16:21.308Z,9.36
2022-11-20T17:18:49.878Z,9.37
2022-11-20T17:21:16.652Z,9.39
2022-11-20T17:23:45.878Z,9.43
2022-11-20T17:26:14.678Z,9.41
2022-11-20T17:28:41.595Z,9.41
2022-11-20T17:31:10.824Z,9.39
2022-11-20T17:33:38.676Z,9.39
2022-11-20T17:36:06.882Z,9.40
2022-11-20T17:38:34.860Z,9.41
2022-11-20T17:41:15.785Z,9.40
2022-11-20T17:43:43.465Z,9.41
2022-11-20T17:46:20.594Z,9.40
2022-11-20T17:48:49.394Z,9.40
2022-11-20T17:51:23.964Z,9.40
2022-11-20T17:53:52.921Z,9.40
2022-11-20T17:56:38.051Z,9.40
2022-11-20T17:59:09.622Z,9.39
2022-11-20T18:01:36.696Z,9.40
2022-11-20T18:04:03.620Z,9.39
2022-11-20T18:06:31.070Z,9.39
2022-11-20T18:09:01.628Z,9.37
2022-11-20T18:11:30.806Z,9.36
2022-11-20T18:14:17.890Z,9.34
2022-11-20T18:16:51.467Z,9.32
2022-11-20T18:19:20.904Z,9.32
2022-11-20T18:21:47.713Z,9.32
2022-11-20T18:24:15.615Z,9.31
2022-11-20T18:26:44.535Z,9.32
2022-11-20T18:29:13.003Z,9.32
2022-11-20T18:31:40.277Z,9.32
2022-11-20T18:34:11.296Z,9.30
2022-11-20T18:36:39.987Z,9.31
2022-11-20T18:39:06.695Z,9.31
2022-11-20T18:41:51.693Z,9.30
2022-11-20T18:44:39.469Z,9.29
2022-11-20T18:47:14.220Z,9.29
2022-11-20T18:49:44.129Z,9.28
2022-11-20T18:52:11.936Z,9.29
2022-11-20T18:54:38.450Z,9.29
2022-11-20T18:57:05.153Z,9.29
2022-11-20T18:59:34.195Z,9.27
2022-11-20T19:02:00.770Z,9.26
2022-11-20T19:04:27.637Z,9.25
2022-11-20T19:06:56.357Z,9.23
2022-11-20T19:09:24.018Z,9.23
2022-11-20T19:11:52.407Z,9.23
2022-11-20T19:14:18.934Z,9.25
2022-11-20T19:16:45.334Z,9.26
2022-11-20T19:19:11.865Z,9.25
2022-11-20T19:21:38.241Z,9.26
2022-11-20T19:24:05.575Z,9.27
2022-11-20T19:26:34.240Z,9.27
2022-11-20T19:29:00.608Z,9.29
2022-11-20T19:31:28.758Z,9.29
2022-11-20T19:33:57.294Z,9.31
2022-11-20T19:36:26.397Z,9.31
2022-11-20T19:38:53.860Z,9.36
2022-11-20T19:41:29.172Z,9.36
2022-11-20T19:44:13.546Z,9.33
2022-11-20T19:46:41.315Z,9.35
2022-11-20T19:49:10.332Z,9.34
2022-11-20T19:51:38.471Z,9.33
2022-11-20T19:54:05.291Z,9.33
2022-11-20T19:56:34.056Z,9.32
2022-11-20T19:59:01.217Z,9.32
2022-11-20T20:01:30.151Z,9.31
2022-11-20T20:04:01.401Z,9.32
2022-11-20T20:06:28.718Z,9.32
2022-11-20T20:09:05.667Z,9.31
2022-11-20T20:11:34.321Z,9.32
2022-11-20T20:14:07.756Z,9.33
2022-11-20T20:16:35.155Z,9.32
2022-11-20T20:19:03.515Z,9.32
2022-11-20T20:21:30.852Z,9.31
2022-11-20T20:23:58.346Z,9.31
2022-11-20T20:26:27.014Z,9.27
2022-11-20T20:28:55.579Z,9.26
2022-11-20T20:31:27.175Z,9.24
2022-11-20T20:33:56.007Z,9.25
2022-11-20T20:36:23.742Z,9.21
2022-11-20T20:38:54.912Z,9.18
2022-11-20T20:41:23.310Z,9.16
2022-11-20T20:44:08.263Z,9.15
2022-11-20T20:46:34.784Z,9.12
2022-11-20T20:49:01.560Z,9.11
2022-11-20T20:51:28.655Z,9.09
2022-11-20T20:53:54.992Z,9.08
2022-11-20T20:56:21.674Z,9.09
2022-11-20T20:58:48.034Z,9.10
2022-11-20T21:01:16.304Z,9.10
2022-11-20T21:03:42.835Z,9.11
2022-11-20T21:06:10.950Z,9.11
2022-11-20T21:08:40.419Z,9.13
2022-11-20T21:11:10.248Z,9.12
2022-11-20T21:13:37.805Z,9.12
2022-11-20T21:16:06.347Z,9.13
2022-11-20T21:18:33.003Z,9.13
2022-11-20T21:21:18.358Z,9.15
2022-11-20T21:23:47.727Z,9.09
2022-11-20T21:26:16.045Z,9.08
2022-11-20T21:28:42.549Z,9.04
2022-11-20T21:31:22.096Z,9.00
2022-11-20T21:33:50.682Z,8.99
2022-11-20T21:36:22.381Z,8.98
2022-11-20T21:38:51.121Z,8.96
2022-11-20T21:41:17.797Z,8.95
2022-11-20T21:43:44.440Z,8.93
2022-11-20T21:46:13.385Z,8.92
2022-11-20T21:48:41.386Z,8.93
2022-11-20T21:51:15.438Z,8.93
2022-11-20T21:53:45.196Z,8.95
2022-11-20T21:56:16.498Z,8.96
2022-11-20T21:58:48.017Z,8.97
2022-11-20T22:01:16.278Z,8.99
2022-11-20T22:03:47.005Z,9.02
2022-11-20T22:06:14.756Z,9.04
2022-11-20T22:08:41.076Z,9.06
2022-11-20T22:11:11.777Z,9.07
2022-11-20T22:13:57.219Z,9.07
2022-11-20T22:16:23.733Z,9.10
2022-11-20T22:18:52.352Z,9.12
2022-11-20T22:21:19.775Z,9.14
2022-11-20T22:23:46.385Z,9.20
2022-11-20T22:26:15.629Z,9.21
2022-11-20T22:28:43.302Z,9.23
2022-11-20T22:31:11.175Z,9.24
2022-11-20T22:33:38.908Z,9.24
2022-11-20T22:36:09.818Z,9.22
2022-11-20T22:38:39.540Z,9.19
2022-11-20T22:41:09.361Z,9.16
2022-11-20T22:43:36.067Z,9.13
2022-11-20T22:46:16.433Z,9.10
2022-11-20T22:48:51.643Z,9.07
2022-11-20T22:51:22.868Z,9.07
2022-11-20T22:53:49.384Z,9.04
2022-11-20T22:56:19.715Z,9.01
2022-11-20T22:58:48.408Z,8.98
2022-11-20T23:01:17.014Z,8.96
2022-11-20T23:03:45.329Z,8.93
2022-11-20T23:06:13.698Z,8.90
2022-11-20T23:08:41.916Z,8.86
2022-11-20T23:11:13.941Z,8.84
2022-11-20T23:13:40.731Z,8.81
2022-11-20T23:16:10.325Z,8.78
2022-11-20T23:18:37.356Z,8.77
2022-11-20T23:21:18.731Z,8.75
2022-11-20T23:23:51.182Z,8.74
2022-11-20T23:26:19.216Z,8.77
2022-11-20T23:28:46.392Z,8.76
2022-11-20T23:31:14.265Z,8.79
2022-11-20T23:33:42.531Z,8.82
2022-11-20T23:36:09.876Z,8.81
2022-11-20T23:38:36.188Z,8.81
2022-11-20T23:41:03.546Z,8.81
2022-11-20T23:43:30.409Z,8.81
2022-11-20T23:46:04.865Z,8.80
2022-11-20T23:48:34.637Z,8.79
2022-11-20T23:51:03.880Z,8.79
2022-11-20T23:53:30.426Z,8.79
2022-11-20T23:55:58.830Z,8.79
2022-11-20T23:58:30.465Z,8.80
